Data Viewer
| City | State | Eastern Time | Source | 1 Hour Temp Max | 1 Hour Temp Min | 1 Hour Dew Point Max | 1 Hour Dew Point Min | 1 Hour RH Max | 1 Hour RH Min | 1 Hour BP Max | 1 Hour BP Min | 1 Hour Precip | 1 Hour Wind Max | 1 Hour Wind Max Dir |
|---|---|---|---|---|---|---|---|---|---|---|---|---|---|---|
| Dennis Twp. | NJ | 2026-05-03 08:00 | Mesonet | 47 | 45 | 36 | 34 | 70 | 62 | 0.00 | 16 | NW | ||
| Dennis Twp. | NJ | 2026-05-03 21:00 | Mesonet | 55 | 54 | 37 | 33 | 53 | 44 | 0.00 | 6 | W | ||
| Dennis Twp. | NJ | 2026-05-04 06:00 | Mesonet | 53 | 53 | 46 | 44 | 77 | 73 | 0.00 | 16 | SW | ||
| Dennis Twp. | NJ | 2026-05-04 05:00 | Mesonet | SW | ||||||||||
| Dennis Twp. | NJ | 2026-05-04 04:00 | Mesonet | 53 | 52 | 43 | 39 | 69 | 58 | 0.00 | 22 | SW | ||
| Dennis Twp. | NJ | 2026-05-04 03:00 | Mesonet | 54 | 53 | 43 | 41 | 68 | 62 | 0.00 | 14 | WNW | ||
| Dennis Twp. | NJ | 2026-05-04 02:00 | Mesonet | 55 | 54 | 43 | 41 | 65 | 61 | 0.00 | 14 | SW | ||
| Dennis Twp. | NJ | 2026-05-04 01:00 | Mesonet | 55 | 54 | 42 | 40 | 64 | 58 | 0.00 | 14 | WNW | ||
| Dennis Twp. | NJ | 2026-05-04 00:00 | Mesonet | 55 | 54 | 43 | 40 | 64 | 58 | 0.00 | 12 | WNW | ||
| Dennis Twp. | NJ | 2026-05-03 23:00 | Mesonet | 55 | 54 | 41 | 39 | 61 | 55 | 0.00 | 8 | WNW | ||
| Dennis Twp. | NJ | 2026-05-03 22:00 | Mesonet | 55 | 52 | 40 | 37 | 63 | 53 | 0.00 | 5 | W | ||
| Dennis Twp. | NJ | 2026-05-03 20:00 | Mesonet | 58 | 55 | 34 | 28 | 45 | 32 | 0.00 | 11 | WNW | ||
| Dennis Twp. | NJ | 2026-05-03 09:00 | Mesonet | 50 | 46 | 34 | 32 | 63 | 51 | 0.00 | 18 | W | ||
| Dennis Twp. | NJ | 2026-05-03 19:00 | Mesonet | 59 | 58 | 29 | 25 | 33 | 28 | 0.00 | 23 | W | ||
| Dennis Twp. | NJ | 2026-05-03 18:00 | Mesonet | 60 | 58 | 28 | 25 | 29 | 27 | 0.00 | 28 | WNW | ||
| Dennis Twp. | NJ | 2026-05-03 17:00 | Mesonet | 60 | 58 | 28 | 24 | 29 | 26 | 0.00 | 26 | NW | ||
| Dennis Twp. | NJ | 2026-05-03 16:00 | Mesonet | 60 | 57 | 27 | 23 | 30 | 25 | 0.00 | 27 | NW | ||
| Dennis Twp. | NJ | 2026-05-03 15:00 | Mesonet | 58 | 56 | 28 | 24 | 33 | 28 | 0.00 | 30 | W | ||
| Dennis Twp. | NJ | 2026-05-03 14:00 | Mesonet | 57 | 54 | 28 | 25 | 36 | 31 | 0.00 | 25 | NNW | ||
| Dennis Twp. | NJ | 2026-05-03 13:00 | Mesonet | 55 | 51 | 31 | 25 | 43 | 32 | 0.00 | 21 | NW | ||
| Dennis Twp. | NJ | 2026-05-03 12:00 | Mesonet | 53 | 50 | 31 | 27 | 46 | 40 | 0.00 | 20 | W | ||
| Dennis Twp. | NJ | 2026-05-03 11:00 | Mesonet | 53 | 50 | 32 | 25 | 46 | 36 | 0.00 | 23 | WSW | ||
| Dennis Twp. | NJ | 2026-05-03 10:00 | Mesonet | 52 | 49 | 33 | 30 | 51 | 45 | 0.00 | 23 | WSW | ||
| Dennis Twp. | NJ | 2026-05-04 07:00 | Mesonet | 53 | 53 | 46 | 46 | 77 | 76 | 0.00 | 15 | SSE |
data collection created in 0.0076899528503418 (queried in 0.002523) rendered in: 5.2213668823242E-5

